Time;durP1;ratioP1;P1;durP2;ratioP2;P2;SDS_P1;SDS_P2;PMS_P1;PMS_P2;Temp;Humidity;BMP_temperature;BMP_pressure;BME280_temperature;BME280_humidity;BME280_pressure;Samples;Min_cycle;Max_cycle;Signal;HPM_P1;HPM_P2
2022/05/18 09:58:39;;;;;;;4.55;4.00;;;;;;;;;;7394609;19;20192;-81
2022/05/18 18:19:00;;;;;;;2.30;2.08;;;;;;;;;;7384758;19;20199;-79
2022/05/18 18:21:26;;;;;;;2.45;2.25;;;;;;;;;;7394506;19;20473;-78
2022/05/18 18:23:52;;;;;;;1.95;1.73;;;;;;;;;;7388640;19;20598;-79
2022/05/18 18:26:26;;;;;;;3.70;2.30;;;;;;;;;;7387232;19;20176;-78
2022/05/18 18:28:52;;;;;;;2.80;2.38;;;;;;;;;;7394986;19;20144;-79
2022/05/18 18:31:18;;;;;;;2.97;2.20;;;;;;;;;;7392454;19;20163;-79
2022/05/18 18:33:44;;;;;;;6.97;2.35;;;;;;;;;;7379432;19;20570;-78
2022/05/18 18:36:16;;;;;;;4.45;2.20;;;;;;;;;;7387230;19;20172;-79
2022/05/18 18:38:42;;;;;;;3.80;2.33;;;;;;;;;;7370982;19;20152;-79
2022/05/18 18:41:10;;;;;;;5.70;2.78;;;;;;;;;;7376302;19;20116;-78
2022/05/18 18:43:36;;;;;;;4.85;2.53;;;;;;;;;;7374666;19;20157;-79
2022/05/18 18:48:48;;;;;;;2.95;2.60;;;;;;;;;;7384847;19;20128;-80
2022/05/18 18:56:47;;;;;;;3.58;2.33;;;;;;;;;;7381321;19;20128;-78
2022/05/18 18:59:14;;;;;;;4.10;2.30;;;;;;;;;;7386747;19;20189;-78
2022/05/18 19:01:40;;;;;;;7.75;2.88;;;;;;;;;;7381524;19;20144;-81
2022/05/18 19:04:08;;;;;;;3.78;2.28;;;;;;;;;;7383871;19;20145;-81
2022/05/18 19:06:34;;;;;;;3.40;2.53;;;;;;;;;;7374973;19;20175;-80
2022/05/18 19:09:00;;;;;;;4.32;2.30;;;;;;;;;;7375674;19;20239;-80
2022/05/18 19:11:26;;;;;;;3.08;2.17;;;;;;;;;;7377343;19;20137;-80
2022/05/18 19:13:52;;;;;;;4.95;2.40;;;;;;;;;;7379596;19;20181;-79
2022/05/18 19:16:18;;;;;;;2.70;2.50;;;;;;;;;;7373052;19;20157;-77
2022/05/18 19:18:44;;;;;;;3.70;2.40;;;;;;;;;;7383524;19;20533;-77
2022/05/18 19:21:10;;;;;;;4.93;2.58;;;;;;;;;;7376912;19;20167;-78
2022/05/18 19:23:37;;;;;;;4.75;2.30;;;;;;;;;;7377940;19;20182;-82
2022/05/18 19:26:06;;;;;;;6.40;2.70;;;;;;;;;;7375193;19;20174;-81
2022/05/18 19:28:33;;;;;;;5.20;2.60;;;;;;;;;;7383553;19;21512;-79
2022/05/18 19:30:59;;;;;;;5.03;2.30;;;;;;;;;;7382297;19;20132;-79
2022/05/18 19:33:25;;;;;;;2.97;2.45;;;;;;;;;;7380536;19;20137;-79
2022/05/18 19:35:51;;;;;;;4.03;2.20;;;;;;;;;;7376402;19;21236;-79
2022/05/18 19:38:17;;;;;;;3.60;2.50;;;;;;;;;;7377222;19;20524;-79
2022/05/18 19:40:44;;;;;;;3.20;2.60;;;;;;;;;;7380774;19;20146;-80
2022/05/18 19:43:14;;;;;;;2.40;2.20;;;;;;;;;;7379687;19;20128;-79
2022/05/18 19:45:40;;;;;;;2.85;2.63;;;;;;;;;;7381797;19;20184;-80
2022/05/18 19:48:08;;;;;;;5.75;2.92;;;;;;;;;;7377966;19;20606;-81
2022/05/18 19:50:35;;;;;;;3.85;2.65;;;;;;;;;;7378014;19;20155;-79
2022/05/18 19:53:01;;;;;;;5.82;2.67;;;;;;;;;;7371742;19;20169;-82
2022/05/18 19:55:30;;;;;;;5.25;2.67;;;;;;;;;;7384097;19;20247;-81
2022/05/18 19:57:57;;;;;;;4.10;2.55;;;;;;;;;;7374891;19;20149;-81
2022/05/18 20:00:26;;;;;;;2.88;2.58;;;;;;;;;;7388382;19;20144;-80
2022/05/18 20:02:52;;;;;;;4.75;2.83;;;;;;;;;;7380625;19;20152;-80
2022/05/18 20:05:18;;;;;;;4.22;3.00;;;;;;;;;;7375141;19;20562;-83
2022/05/18 20:07:44;;;;;;;3.35;3.03;;;;;;;;;;7382225;19;20132;-80
2022/05/18 20:10:10;;;;;;;4.63;3.30;;;;;;;;;;7385831;19;20125;-80
2022/05/18 20:12:36;;;;;;;4.20;2.63;;;;;;;;;;7384269;19;20188;-81
2022/05/18 20:15:03;;;;;;;2.53;2.33;;;;;;;;;;7387793;19;20169;-82
2022/05/18 20:17:29;;;;;;;5.15;2.65;;;;;;;;;;7387139;19;20129;-80
2022/05/18 20:19:55;;;;;;;3.95;2.30;;;;;;;;;;7378411;19;20161;-80
2022/05/18 20:22:21;;;;;;;3.83;2.60;;;;;;;;;;7375600;19;20133;-79
2022/05/18 20:24:47;;;;;;;3.50;2.35;;;;;;;;;;7370897;19;20148;-79
2022/05/18 20:27:14;;;;;;;5.00;2.63;;;;;;;;;;7361616;19;20721;-78
2022/05/18 20:29:42;;;;;;;4.50;2.83;;;;;;;;;;7362217;19;20165;-79
2022/05/18 20:32:10;;;;;;;5.93;2.67;;;;;;;;;;7371253;19;20165;-82
2022/05/18 20:34:36;;;;;;;4.50;2.63;;;;;;;;;;7371710;19;20172;-78
2022/05/18 20:37:02;;;;;;;3.38;2.70;;;;;;;;;;7375387;19;20125;-82
2022/05/18 20:39:28;;;;;;;3.80;2.40;;;;;;;;;;7401521;19;20113;-82
2022/05/18 20:41:55;;;;;;;2.38;2.10;;;;;;;;;;7407700;19;20143;-82
2022/05/18 20:44:31;;;;;;;4.47;2.20;;;;;;;;;;7416549;19;20637;-82
2022/05/18 20:46:59;;;;;;;2.78;2.50;;;;;;;;;;7402822;19;20148;-83
2022/05/18 20:49:29;;;;;;;3.05;2.40;;;;;;;;;;7370485;19;20626;-80
2022/05/18 20:51:55;;;;;;;5.40;2.60;;;;;;;;;;7363446;19;20153;-80
2022/05/18 20:54:21;;;;;;;3.47;2.40;;;;;;;;;;7369258;19;20146;-81
2022/05/18 20:56:47;;;;;;;4.00;2.47;;;;;;;;;;7376078;19;20125;-80
2022/05/18 20:59:13;;;;;;;2.75;2.38;;;;;;;;;;7376461;19;20665;-83
2022/05/18 21:01:42;;;;;;;4.60;2.45;;;;;;;;;;7370161;19;20159;-80
2022/05/18 21:04:09;;;;;;;4.07;2.38;;;;;;;;;;7369741;19;20149;-81
2022/05/18 21:06:35;;;;;;;2.63;2.30;;;;;;;;;;7373070;19;20491;-79
2022/05/18 21:09:01;;;;;;;2.75;2.38;;;;;;;;;;7375344;19;20124;-83
2022/05/18 21:11:28;;;;;;;2.80;2.60;;;;;;;;;;7374876;19;20139;-79
2022/05/18 21:13:57;;;;;;;5.03;2.67;;;;;;;;;;7377555;19;20145;-81
2022/05/18 21:16:23;;;;;;;5.50;3.33;;;;;;;;;;7367672;19;20149;-79
2022/05/18 21:18:49;;;;;;;3.95;2.60;;;;;;;;;;7369440;19;20561;-79
2022/05/18 21:21:16;;;;;;;2.83;2.50;;;;;;;;;;7382051;19;20145;-77
2022/05/18 21:23:42;;;;;;;2.95;2.72;;;;;;;;;;7377198;19;20502;-78
2022/05/18 21:26:08;;;;;;;3.08;2.42;;;;;;;;;;7361432;19;23540;-79
2022/05/18 21:28:34;;;;;;;2.53;2.22;;;;;;;;;;7371283;19;21165;-77
2022/05/18 21:31:00;;;;;;;5.78;2.83;;;;;;;;;;7365102;19;20848;-78
2022/05/18 21:33:27;;;;;;;2.70;2.50;;;;;;;;;;7372589;19;20461;-78
2022/05/18 21:35:53;;;;;;;4.75;2.80;;;;;;;;;;7378091;19;20185;-82
2022/05/18 21:38:20;;;;;;;3.25;2.95;;;;;;;;;;7350601;19;20141;-78
2022/05/18 21:40:46;;;;;;;3.00;2.65;;;;;;;;;;7361865;19;20594;-79
2022/05/18 21:43:14;;;;;;;4.40;2.15;;;;;;;;;;7372839;19;20146;-78
2022/05/18 21:45:40;;;;;;;3.15;2.38;;;;;;;;;;7381139;19;20145;-80
2022/05/18 21:48:06;;;;;;;2.92;2.72;;;;;;;;;;7369802;19;20654;-79
2022/05/18 21:50:32;;;;;;;6.03;3.10;;;;;;;;;;7368838;19;20139;-80
2022/05/18 21:52:58;;;;;;;3.13;2.63;;;;;;;;;;7375105;19;20152;-82
2022/05/18 21:55:24;;;;;;;3.67;2.75;;;;;;;;;;7389369;19;20179;-81
2022/05/18 21:57:55;;;;;;;2.88;2.50;;;;;;;;;;7389283;19;20734;-79
2022/05/18 22:00:28;;;;;;;4.40;2.42;;;;;;;;;;7393062;19;20460;-79
2022/05/18 22:02:53;;;;;;;3.28;2.70;;;;;;;;;;7384581;19;20174;-81
2022/05/18 22:05:20;;;;;;;4.57;3.08;;;;;;;;;;7386205;19;20160;-81
2022/05/18 22:07:45;;;;;;;3.53;2.83;;;;;;;;;;7384693;19;20136;-79
2022/05/18 22:10:11;;;;;;;3.78;2.60;;;;;;;;;;7395016;19;20133;-81
2022/05/18 22:12:38;;;;;;;3.03;2.72;;;;;;;;;;7395574;19;20180;-82
2022/05/18 22:15:04;;;;;;;3.95;3.13;;;;;;;;;;7396117;19;20153;-80
2022/05/18 22:17:30;;;;;;;3.85;2.97;;;;;;;;;;7398709;19;20523;-80
2022/05/18 22:19:56;;;;;;;3.78;3.03;;;;;;;;;;7393633;19;20137;-81
2022/05/18 22:22:22;;;;;;;3.40;3.10;;;;;;;;;;7379854;19;20745;-79
2022/05/18 22:24:48;;;;;;;4.22;2.95;;;;;;;;;;7373564;19;20149;-80
2022/05/18 22:27:17;;;;;;;5.43;3.13;;;;;;;;;;7379175;19;20150;-80
2022/05/18 22:29:44;;;;;;;3.28;2.72;;;;;;;;;;7362717;19;20204;-78
2022/05/18 22:32:11;;;;;;;3.53;3.22;;;;;;;;;;7374601;19;20224;-82
2022/05/18 22:34:37;;;;;;;3.70;3.30;;;;;;;;;;7369480;19;20141;-78
2022/05/18 22:37:03;;;;;;;4.27;3.57;;;;;;;;;;7374207;19;20165;-80
2022/05/18 22:39:30;;;;;;;3.57;2.83;;;;;;;;;;7374996;19;20703;-81
2022/05/18 22:41:56;;;;;;;3.60;3.05;;;;;;;;;;7370886;19;20129;-80
2022/05/18 22:44:25;;;;;;;3.33;3.03;;;;;;;;;;7371093;19;20601;-78
2022/05/18 22:46:51;;;;;;;3.45;3.15;;;;;;;;;;7367930;19;20144;-83
2022/05/18 22:49:17;;;;;;;4.70;3.65;;;;;;;;;;7370683;19;20144;-79
2022/05/18 22:51:43;;;;;;;4.07;3.10;;;;;;;;;;7372483;19;20503;-81
2022/05/18 22:54:09;;;;;;;6.67;3.33;;;;;;;;;;7357063;19;20128;-80
2022/05/18 22:56:35;;;;;;;5.20;3.08;;;;;;;;;;7365195;19;20166;-82
2022/05/18 22:59:02;;;;;;;3.60;3.30;;;;;;;;;;7363613;19;20159;-81
2022/05/18 23:01:28;;;;;;;3.73;3.37;;;;;;;;;;7375111;19;20149;-79
2022/05/18 23:03:54;;;;;;;5.80;4.27;;;;;;;;;;7375814;19;20658;-79
2022/05/18 23:06:20;;;;;;;5.57;4.10;;;;;;;;;;7377624;19;20165;-79
2022/05/18 23:08:46;;;;;;;3.70;3.00;;;;;;;;;;7379767;19;20133;-80
2022/05/18 23:11:13;;;;;;;3.90;3.30;;;;;;;;;;7378482;19;20140;-79
2022/05/18 23:13:39;;;;;;;6.33;3.77;;;;;;;;;;7377510;19;20153;-78
2022/05/18 23:16:07;;;;;;;4.50;3.30;;;;;;;;;;7361916;19;20168;-78
2022/05/18 23:18:34;;;;;;;9.30;6.10;;;;;;;;;;7372653;19;20528;-78
2022/05/18 23:21:00;;;;;;;5.53;4.10;;;;;;;;;;7371815;19;20188;-81
2022/05/18 23:23:32;;;;;;;4.37;3.50;;;;;;;;;;7371420;19;20153;-78
2022/05/18 23:25:59;;;;;;;5.77;3.37;;;;;;;;;;7373333;19;20184;-82
2022/05/18 23:28:26;;;;;;;4.10;3.70;;;;;;;;;;7375644;19;20152;-80
2022/05/18 23:30:52;;;;;;;12.10;6.87;;;;;;;;;;7368468;19;20277;-80
2022/05/18 23:33:22;;;;;;;8.20;6.53;;;;;;;;;;7369667;19;20635;-78
2022/05/18 23:35:48;;;;;;;9.07;5.73;;;;;;;;;;7361284;19;20172;-78
2022/05/18 23:38:14;;;;;;;5.37;4.30;;;;;;;;;;7349294;19;20166;-78
2022/05/18 23:40:40;;;;;;;6.17;3.83;;;;;;;;;;7375890;19;20136;-82
2022/05/18 23:43:06;;;;;;;6.70;4.00;;;;;;;;;;7375208;19;20450;-78
2022/05/18 23:45:33;;;;;;;5.93;3.93;;;;;;;;;;7374051;19;20149;-80
2022/05/18 23:47:59;;;;;;;4.93;3.90;;;;;;;;;;7375348;19;20160;-78
2022/05/18 23:53:13;;;;;;;4.45;3.95;;;;;;;;;;7381426;19;20248;-78
2022/05/18 23:55:40;;;;;;;4.87;3.67;;;;;;;;;;7378829;19;20202;-79
2022/05/18 23:58:06;;;;;;;5.67;3.80;;;;;;;;;;7386967;19;20164;-81
